sensor_id;sensor_type;location;lat;lon;timestamp;P1;durP1;ratioP1;P2;durP2;ratioP2
71343;SDS011;59146;43.850;25.948;2022-07-29T00:00:41;20.95;;;13.00;;
71343;SDS011;59146;43.850;25.948;2022-07-29T00:03:10;16.73;;;12.52;;
71343;SDS011;59146;43.850;25.948;2022-07-29T00:05:41;23.25;;;12.13;;
71343;SDS011;59146;43.850;25.948;2022-07-29T00:08:07;21.80;;;11.27;;
71343;SDS011;59146;43.850;25.948;2022-07-29T00:10:33;26.60;;;12.43;;
71343;SDS011;59146;43.850;25.948;2022-07-29T00:12:59;18.92;;;11.80;;
71343;SDS011;59146;43.850;25.948;2022-07-29T00:15:24;20.65;;;11.10;;
71343;SDS011;59146;43.850;25.948;2022-07-29T00:17:50;27.08;;;9.43;;
71343;SDS011;59146;43.850;25.948;2022-07-29T00:20:15;24.73;;;10.02;;
71343;SDS011;59146;43.850;25.948;2022-07-29T00:22:41;18.95;;;9.55;;
71343;SDS011;59146;43.850;25.948;2022-07-29T00:25:07;18.65;;;9.13;;
71343;SDS011;59146;43.850;25.948;2022-07-29T00:27:33;9.77;;;8.38;;
71343;SDS011;59146;43.850;25.948;2022-07-29T00:29:59;11.52;;;6.95;;
71343;SDS011;59146;43.850;25.948;2022-07-29T00:32:25;12.80;;;7.43;;
71343;SDS011;59146;43.850;25.948;2022-07-29T00:34:51;11.35;;;7.30;;
71343;SDS011;59146;43.850;25.948;2022-07-29T00:37:35;9.95;;;5.47;;
71343;SDS011;59146;43.850;25.948;2022-07-29T00:40:00;11.07;;;5.50;;
71343;SDS011;59146;43.850;25.948;2022-07-29T00:42:26;7.10;;;5.68;;
71343;SDS011;59146;43.850;25.948;2022-07-29T00:44:52;8.00;;;5.57;;
71343;SDS011;59146;43.850;25.948;2022-07-29T00:47:18;9.05;;;5.63;;
71343;SDS011;59146;43.850;25.948;2022-07-29T00:49:43;15.70;;;6.20;;
71343;SDS011;59146;43.850;25.948;2022-07-29T00:52:09;6.65;;;4.70;;
71343;SDS011;59146;43.850;25.948;2022-07-29T00:54:36;15.43;;;5.78;;
71343;SDS011;59146;43.850;25.948;2022-07-29T00:57:03;8.18;;;5.15;;
71343;SDS011;59146;43.850;25.948;2022-07-29T00:59:32;8.95;;;5.50;;
71343;SDS011;59146;43.850;25.948;2022-07-29T01:01:57;8.35;;;6.00;;
71343;SDS011;59146;43.850;25.948;2022-07-29T01:04:25;9.98;;;5.15;;
71343;SDS011;59146;43.850;25.948;2022-07-29T01:06:51;8.45;;;5.65;;
71343;SDS011;59146;43.850;25.948;2022-07-29T01:09:17;10.95;;;5.72;;
71343;SDS011;59146;43.850;25.948;2022-07-29T01:11:43;11.18;;;6.10;;
71343;SDS011;59146;43.850;25.948;2022-07-29T01:14:12;6.82;;;6.20;;
71343;SDS011;59146;43.850;25.948;2022-07-29T01:16:42;15.23;;;7.03;;
71343;SDS011;59146;43.850;25.948;2022-07-29T01:19:21;12.35;;;7.10;;
71343;SDS011;59146;43.850;25.948;2022-07-29T01:21:59;7.95;;;6.95;;
71343;SDS011;59146;43.850;25.948;2022-07-29T01:24:47;11.27;;;7.35;;
71343;SDS011;59146;43.850;25.948;2022-07-29T01:30:32;13.68;;;8.35;;
71343;SDS011;59146;43.850;25.948;2022-07-29T01:33:02;11.98;;;7.07;;
71343;SDS011;59146;43.850;25.948;2022-07-29T01:35:33;19.10;;;7.50;;
71343;SDS011;59146;43.850;25.948;2022-07-29T01:38:12;13.90;;;7.70;;
71343;SDS011;59146;43.850;25.948;2022-07-29T01:40:50;20.58;;;7.75;;
71343;SDS011;59146;43.850;25.948;2022-07-29T01:43:21;14.93;;;8.25;;
71343;SDS011;59146;43.850;25.948;2022-07-29T01:46:02;22.42;;;7.68;;
71343;SDS011;59146;43.850;25.948;2022-07-29T01:48:39;18.58;;;7.50;;
71343;SDS011;59146;43.850;25.948;2022-07-29T01:51:19;16.83;;;8.18;;
71343;SDS011;59146;43.850;25.948;2022-07-29T01:54:02;17.33;;;7.65;;
71343;SDS011;59146;43.850;25.948;2022-07-29T01:56:33;18.83;;;8.02;;
71343;SDS011;59146;43.850;25.948;2022-07-29T01:59:01;20.60;;;7.90;;
71343;SDS011;59146;43.850;25.948;2022-07-29T02:01:28;15.70;;;8.30;;
71343;SDS011;59146;43.850;25.948;2022-07-29T02:03:56;12.32;;;7.88;;
71343;SDS011;59146;43.850;25.948;2022-07-29T02:06:22;22.38;;;8.20;;
71343;SDS011;59146;43.850;25.948;2022-07-29T02:08:49;13.27;;;6.85;;
71343;SDS011;59146;43.850;25.948;2022-07-29T02:11:17;15.35;;;7.45;;
71343;SDS011;59146;43.850;25.948;2022-07-29T02:13:43;18.90;;;7.10;;
71343;SDS011;59146;43.850;25.948;2022-07-29T02:16:10;11.13;;;6.00;;
71343;SDS011;59146;43.850;25.948;2022-07-29T02:18:37;19.48;;;6.90;;
71343;SDS011;59146;43.850;25.948;2022-07-29T02:21:05;15.43;;;7.20;;
71343;SDS011;59146;43.850;25.948;2022-07-29T02:23:32;19.10;;;7.43;;
71343;SDS011;59146;43.850;25.948;2022-07-29T02:26:01;17.65;;;7.15;;
71343;SDS011;59146;43.850;25.948;2022-07-29T02:28:28;18.30;;;7.03;;
71343;SDS011;59146;43.850;25.948;2022-07-29T02:30:58;15.30;;;7.38;;
71343;SDS011;59146;43.850;25.948;2022-07-29T02:33:27;12.43;;;7.22;;
71343;SDS011;59146;43.850;25.948;2022-07-29T02:35:55;13.40;;;7.65;;
71343;SDS011;59146;43.850;25.948;2022-07-29T02:38:23;11.80;;;7.60;;
71343;SDS011;59146;43.850;25.948;2022-07-29T02:41:10;18.80;;;8.48;;
71343;SDS011;59146;43.850;25.948;2022-07-29T02:43:38;15.57;;;7.47;;
71343;SDS011;59146;43.850;25.948;2022-07-29T02:46:06;14.70;;;7.75;;
71343;SDS011;59146;43.850;25.948;2022-07-29T02:48:36;20.00;;;8.20;;
71343;SDS011;59146;43.850;25.948;2022-07-29T02:51:13;24.67;;;8.80;;
71343;SDS011;59146;43.850;25.948;2022-07-29T02:53:45;23.08;;;9.38;;
71343;SDS011;59146;43.850;25.948;2022-07-29T02:56:16;17.67;;;8.35;;
71343;SDS011;59146;43.850;25.948;2022-07-29T02:58:47;20.17;;;8.68;;
71343;SDS011;59146;43.850;25.948;2022-07-29T03:01:19;14.10;;;8.25;;
71343;SDS011;59146;43.850;25.948;2022-07-29T03:06:14;23.00;;;8.65;;
71343;SDS011;59146;43.850;25.948;2022-07-29T03:08:45;16.88;;;9.13;;
71343;SDS011;59146;43.850;25.948;2022-07-29T03:11:11;16.37;;;8.53;;
71343;SDS011;59146;43.850;25.948;2022-07-29T03:13:40;15.38;;;9.50;;
71343;SDS011;59146;43.850;25.948;2022-07-29T03:16:06;15.98;;;9.35;;
71343;SDS011;59146;43.850;25.948;2022-07-29T03:18:33;18.50;;;9.18;;
71343;SDS011;59146;43.850;25.948;2022-07-29T03:20:59;14.43;;;9.05;;
71343;SDS011;59146;43.850;25.948;2022-07-29T03:23:24;18.17;;;8.85;;
71343;SDS011;59146;43.850;25.948;2022-07-29T03:25:53;17.02;;;8.95;;
71343;SDS011;59146;43.850;25.948;2022-07-29T03:28:19;19.00;;;8.40;;
71343;SDS011;59146;43.850;25.948;2022-07-29T03:30:45;16.55;;;8.82;;
71343;SDS011;59146;43.850;25.948;2022-07-29T03:33:11;13.02;;;8.30;;
71343;SDS011;59146;43.850;25.948;2022-07-29T03:35:36;13.70;;;8.25;;
71343;SDS011;59146;43.850;25.948;2022-07-29T03:38:02;19.10;;;8.73;;
71343;SDS011;59146;43.850;25.948;2022-07-29T03:40:31;22.38;;;8.65;;
71343;SDS011;59146;43.850;25.948;2022-07-29T03:43:09;10.32;;;6.82;;
71343;SDS011;59146;43.850;25.948;2022-07-29T03:45:36;16.90;;;6.95;;
71343;SDS011;59146;43.850;25.948;2022-07-29T03:48:06;19.05;;;6.63;;
71343;SDS011;59146;43.850;25.948;2022-07-29T03:50:33;13.57;;;6.73;;
71343;SDS011;59146;43.850;25.948;2022-07-29T03:53:00;11.82;;;5.85;;
71343;SDS011;59146;43.850;25.948;2022-07-29T03:55:26;8.90;;;4.80;;
71343;SDS011;59146;43.850;25.948;2022-07-29T03:58:00;11.07;;;6.20;;
71343;SDS011;59146;43.850;25.948;2022-07-29T04:00:27;9.23;;;5.78;;
71343;SDS011;59146;43.850;25.948;2022-07-29T04:02:52;10.63;;;5.30;;
71343;SDS011;59146;43.850;25.948;2022-07-29T04:05:18;5.85;;;4.45;;
71343;SDS011;59146;43.850;25.948;2022-07-29T04:07:44;7.90;;;5.03;;
71343;SDS011;59146;43.850;25.948;2022-07-29T04:10:11;19.48;;;4.70;;
71343;SDS011;59146;43.850;25.948;2022-07-29T04:12:36;6.15;;;4.45;;
71343;SDS011;59146;43.850;25.948;2022-07-29T04:15:05;9.90;;;4.50;;
71343;SDS011;59146;43.850;25.948;2022-07-29T04:17:31;18.02;;;5.22;;
71343;SDS011;59146;43.850;25.948;2022-07-29T04:19:56;15.38;;;6.45;;
71343;SDS011;59146;43.850;25.948;2022-07-29T04:22:21;13.95;;;6.22;;
71343;SDS011;59146;43.850;25.948;2022-07-29T04:24:47;14.32;;;5.65;;
71343;SDS011;59146;43.850;25.948;2022-07-29T04:27:12;15.07;;;6.38;;
71343;SDS011;59146;43.850;25.948;2022-07-29T04:29:38;21.35;;;6.43;;
71343;SDS011;59146;43.850;25.948;2022-07-29T04:32:03;16.05;;;6.55;;
71343;SDS011;59146;43.850;25.948;2022-07-29T04:34:29;11.23;;;6.95;;
71343;SDS011;59146;43.850;25.948;2022-07-29T04:36:55;21.25;;;10.82;;
71343;SDS011;59146;43.850;25.948;2022-07-29T04:39:20;17.00;;;6.82;;
71343;SDS011;59146;43.850;25.948;2022-07-29T04:41:46;13.98;;;6.03;;
71343;SDS011;59146;43.850;25.948;2022-07-29T04:44:12;14.10;;;7.20;;
71343;SDS011;59146;43.850;25.948;2022-07-29T04:46:38;16.95;;;6.10;;
71343;SDS011;59146;43.850;25.948;2022-07-29T04:49:04;11.55;;;6.53;;
71343;SDS011;59146;43.850;25.948;2022-07-29T04:51:30;9.98;;;6.18;;
71343;SDS011;59146;43.850;25.948;2022-07-29T04:53:55;19.67;;;5.93;;
71343;SDS011;59146;43.850;25.948;2022-07-29T04:56:21;13.65;;;6.80;;
71343;SDS011;59146;43.850;25.948;2022-07-29T04:58:46;10.80;;;5.72;;
71343;SDS011;59146;43.850;25.948;2022-07-29T05:01:15;13.45;;;4.80;;
71343;SDS011;59146;43.850;25.948;2022-07-29T05:03:41;13.30;;;5.20;;
71343;SDS011;59146;43.850;25.948;2022-07-29T05:06:06;8.43;;;5.03;;
71343;SDS011;59146;43.850;25.948;2022-07-29T05:08:32;13.52;;;5.15;;
71343;SDS011;59146;43.850;25.948;2022-07-29T05:10:57;14.68;;;5.45;;
71343;SDS011;59146;43.850;25.948;2022-07-29T05:13:23;16.13;;;5.18;;
71343;SDS011;59146;43.850;25.948;2022-07-29T05:15:48;13.10;;;4.63;;
71343;SDS011;59146;43.850;25.948;2022-07-29T05:18:14;15.88;;;5.32;;
71343;SDS011;59146;43.850;25.948;2022-07-29T05:20:40;14.75;;;5.05;;
71343;SDS011;59146;43.850;25.948;2022-07-29T05:23:06;22.85;;;5.72;;
71343;SDS011;59146;43.850;25.948;2022-07-29T05:25:31;12.32;;;4.93;;
71343;SDS011;59146;43.850;25.948;2022-07-29T05:27:57;12.05;;;5.35;;
71343;SDS011;59146;43.850;25.948;2022-07-29T05:30:23;13.15;;;6.00;;
71343;SDS011;59146;43.850;25.948;2022-07-29T05:32:49;9.77;;;4.63;;
71343;SDS011;59146;43.850;25.948;2022-07-29T05:35:15;26.08;;;5.72;;
71343;SDS011;59146;43.850;25.948;2022-07-29T05:37:42;13.30;;;5.25;;
71343;SDS011;59146;43.850;25.948;2022-07-29T05:40:07;17.65;;;4.88;;
71343;SDS011;59146;43.850;25.948;2022-07-29T05:42:33;15.68;;;5.25;;
71343;SDS011;59146;43.850;25.948;2022-07-29T05:44:59;11.73;;;4.15;;
71343;SDS011;59146;43.850;25.948;2022-07-29T05:47:25;15.45;;;5.00;;
71343;SDS011;59146;43.850;25.948;2022-07-29T05:49:51;13.82;;;4.35;;
71343;SDS011;59146;43.850;25.948;2022-07-29T05:52:16;8.77;;;4.70;;
71343;SDS011;59146;43.850;25.948;2022-07-29T05:54:42;13.10;;;4.60;;
71343;SDS011;59146;43.850;25.948;2022-07-29T05:57:09;10.43;;;5.10;;
71343;SDS011;59146;43.850;25.948;2022-07-29T05:59:40;12.95;;;5.13;;
71343;SDS011;59146;43.850;25.948;2022-07-29T06:02:06;13.30;;;4.60;;
71343;SDS011;59146;43.850;25.948;2022-07-29T06:04:32;15.55;;;4.60;;
71343;SDS011;59146;43.850;25.948;2022-07-29T06:06:58;15.02;;;4.93;;
71343;SDS011;59146;43.850;25.948;2022-07-29T06:09:23;23.58;;;5.95;;
71343;SDS011;59146;43.850;25.948;2022-07-29T06:11:49;10.65;;;4.50;;
71343;SDS011;59146;43.850;25.948;2022-07-29T06:14:14;14.27;;;6.10;;
71343;SDS011;59146;43.850;25.948;2022-07-29T06:16:40;10.23;;;4.38;;
71343;SDS011;59146;43.850;25.948;2022-07-29T06:19:06;8.77;;;4.30;;
71343;SDS011;59146;43.850;25.948;2022-07-29T06:21:31;6.63;;;3.70;;
71343;SDS011;59146;43.850;25.948;2022-07-29T06:23:58;8.60;;;3.33;;
71343;SDS011;59146;43.850;25.948;2022-07-29T06:26:24;8.00;;;3.50;;
71343;SDS011;59146;43.850;25.948;2022-07-29T06:28:49;12.27;;;3.70;;
71343;SDS011;59146;43.850;25.948;2022-07-29T06:31:14;7.70;;;4.32;;
71343;SDS011;59146;43.850;25.948;2022-07-29T06:33:40;8.50;;;4.25;;
71343;SDS011;59146;43.850;25.948;2022-07-29T06:36:05;16.00;;;5.05;;
71343;SDS011;59146;43.850;25.948;2022-07-29T06:38:32;7.68;;;4.30;;
71343;SDS011;59146;43.850;25.948;2022-07-29T06:40:58;10.45;;;4.15;;
71343;SDS011;59146;43.850;25.948;2022-07-29T06:43:37;12.82;;;4.63;;
71343;SDS011;59146;43.850;25.948;2022-07-29T06:46:14;13.25;;;3.78;;
71343;SDS011;59146;43.850;25.948;2022-07-29T06:48:42;11.95;;;4.15;;
71343;SDS011;59146;43.850;25.948;2022-07-29T06:51:08;7.70;;;3.90;;
71343;SDS011;59146;43.850;25.948;2022-07-29T06:53:34;12.30;;;4.13;;
71343;SDS011;59146;43.850;25.948;2022-07-29T06:56:00;15.93;;;5.10;;
71343;SDS011;59146;43.850;25.948;2022-07-29T06:58:27;11.10;;;5.85;;
71343;SDS011;59146;43.850;25.948;2022-07-29T07:00:53;12.40;;;4.60;;
71343;SDS011;59146;43.850;25.948;2022-07-29T07:03:20;9.35;;;4.68;;
71343;SDS011;59146;43.850;25.948;2022-07-29T07:05:47;7.25;;;3.63;;
71343;SDS011;59146;43.850;25.948;2022-07-29T07:08:13;8.35;;;3.58;;
71343;SDS011;59146;43.850;25.948;2022-07-29T07:10:42;6.57;;;3.03;;
71343;SDS011;59146;43.850;25.948;2022-07-29T07:13:08;7.95;;;3.25;;
71343;SDS011;59146;43.850;25.948;2022-07-29T07:15:35;11.13;;;3.40;;
71343;SDS011;59146;43.850;25.948;2022-07-29T07:18:10;4.03;;;3.58;;
71343;SDS011;59146;43.850;25.948;2022-07-29T07:20:36;8.15;;;3.75;;
71343;SDS011;59146;43.850;25.948;2022-07-29T07:23:02;7.57;;;3.40;;
71343;SDS011;59146;43.850;25.948;2022-07-29T07:25:30;11.57;;;3.20;;
71343;SDS011;59146;43.850;25.948;2022-07-29T07:27:56;6.20;;;3.05;;
71343;SDS011;59146;43.850;25.948;2022-07-29T07:30:24;3.75;;;2.95;;
71343;SDS011;59146;43.850;25.948;2022-07-29T07:32:59;4.45;;;2.60;;
71343;SDS011;59146;43.850;25.948;2022-07-29T07:35:25;11.35;;;2.97;;
71343;SDS011;59146;43.850;25.948;2022-07-29T07:37:52;7.00;;;2.53;;
71343;SDS011;59146;43.850;25.948;2022-07-29T07:40:18;4.97;;;2.47;;
71343;SDS011;59146;43.850;25.948;2022-07-29T07:42:44;8.45;;;3.10;;
71343;SDS011;59146;43.850;25.948;2022-07-29T07:45:10;7.57;;;2.95;;
71343;SDS011;59146;43.850;25.948;2022-07-29T07:47:38;8.45;;;2.60;;
71343;SDS011;59146;43.850;25.948;2022-07-29T07:50:05;4.05;;;2.20;;
71343;SDS011;59146;43.850;25.948;2022-07-29T07:52:32;6.75;;;2.67;;
71343;SDS011;59146;43.850;25.948;2022-07-29T07:54:58;4.73;;;2.30;;
71343;SDS011;59146;43.850;25.948;2022-07-29T07:57:23;5.82;;;2.30;;
71343;SDS011;59146;43.850;25.948;2022-07-29T07:59:51;9.38;;;3.20;;
71343;SDS011;59146;43.850;25.948;2022-07-29T08:02:34;3.53;;;2.20;;
71343;SDS011;59146;43.850;25.948;2022-07-29T08:05:02;2.80;;;2.40;;
71343;SDS011;59146;43.850;25.948;2022-07-29T08:07:28;4.53;;;2.50;;
71343;SDS011;59146;43.850;25.948;2022-07-29T08:09:54;5.85;;;2.60;;
71343;SDS011;59146;43.850;25.948;2022-07-29T08:12:22;8.43;;;2.90;;
71343;SDS011;59146;43.850;25.948;2022-07-29T08:14:51;8.38;;;2.45;;
71343;SDS011;59146;43.850;25.948;2022-07-29T08:17:16;5.80;;;2.63;;
71343;SDS011;59146;43.850;25.948;2022-07-29T08:19:42;4.50;;;2.80;;
71343;SDS011;59146;43.850;25.948;2022-07-29T08:22:07;8.45;;;2.78;;
71343;SDS011;59146;43.850;25.948;2022-07-29T08:24:33;2.78;;;1.90;;
71343;SDS011;59146;43.850;25.948;2022-07-29T08:27:16;4.50;;;2.50;;
71343;SDS011;59146;43.850;25.948;2022-07-29T08:29:42;4.43;;;2.80;;
71343;SDS011;59146;43.850;25.948;2022-07-29T08:32:08;6.20;;;2.70;;
71343;SDS011;59146;43.850;25.948;2022-07-29T08:34:33;8.75;;;3.17;;
71343;SDS011;59146;43.850;25.948;2022-07-29T08:36:59;2.22;;;2.03;;
71343;SDS011;59146;43.850;25.948;2022-07-29T08:39:25;4.63;;;2.78;;
71343;SDS011;59146;43.850;25.948;2022-07-29T08:41:57;7.05;;;2.97;;
71343;SDS011;59146;43.850;25.948;2022-07-29T08:44:23;4.38;;;3.00;;
71343;SDS011;59146;43.850;25.948;2022-07-29T08:46:49;3.85;;;2.00;;
71343;SDS011;59146;43.850;25.948;2022-07-29T08:49:15;9.60;;;3.08;;
71343;SDS011;59146;43.850;25.948;2022-07-29T08:51:41;5.43;;;2.80;;
71343;SDS011;59146;43.850;25.948;2022-07-29T08:54:09;2.78;;;2.42;;
71343;SDS011;59146;43.850;25.948;2022-07-29T08:56:35;4.28;;;3.10;;
71343;SDS011;59146;43.850;25.948;2022-07-29T08:59:04;4.60;;;2.70;;
71343;SDS011;59146;43.850;25.948;2022-07-29T09:01:32;6.10;;;3.13;;
71343;SDS011;59146;43.850;25.948;2022-07-29T09:04:03;12.50;;;3.15;;
71343;SDS011;59146;43.850;25.948;2022-07-29T09:06:30;3.20;;;2.50;;
71343;SDS011;59146;43.850;25.948;2022-07-29T09:08:59;6.60;;;3.13;;
71343;SDS011;59146;43.850;25.948;2022-07-29T09:11:26;4.20;;;2.60;;
71343;SDS011;59146;43.850;25.948;2022-07-29T09:13:52;3.78;;;2.63;;
71343;SDS011;59146;43.850;25.948;2022-07-29T09:16:17;5.93;;;2.75;;
71343;SDS011;59146;43.850;25.948;2022-07-29T09:18:44;4.28;;;2.58;;
71343;SDS011;59146;43.850;25.948;2022-07-29T09:21:12;4.43;;;2.55;;
71343;SDS011;59146;43.850;25.948;2022-07-29T09:26:30;4.03;;;2.65;;
71343;SDS011;59146;43.850;25.948;2022-07-29T09:28:57;7.68;;;3.05;;
71343;SDS011;59146;43.850;25.948;2022-07-29T09:31:34;3.00;;;2.70;;
71343;SDS011;59146;43.850;25.948;2022-07-29T09:34:01;4.53;;;2.90;;
71343;SDS011;59146;43.850;25.948;2022-07-29T09:36:27;6.07;;;2.42;;
71343;SDS011;59146;43.850;25.948;2022-07-29T09:38:56;5.32;;;3.22;;
71343;SDS011;59146;43.850;25.948;2022-07-29T09:41:27;6.45;;;2.80;;
71343;SDS011;59146;43.850;25.948;2022-07-29T09:43:57;11.43;;;7.00;;
71343;SDS011;59146;43.850;25.948;2022-07-29T09:46:24;6.80;;;2.50;;
71343;SDS011;59146;43.850;25.948;2022-07-29T09:49:06;3.35;;;2.90;;
71343;SDS011;59146;43.850;25.948;2022-07-29T09:51:32;4.03;;;3.08;;
71343;SDS011;59146;43.850;25.948;2022-07-29T09:53:58;5.93;;;3.10;;
71343;SDS011;59146;43.850;25.948;2022-07-29T09:56:40;11.18;;;3.40;;
71343;SDS011;59146;43.850;25.948;2022-07-29T09:59:11;4.53;;;2.88;;
71343;SDS011;59146;43.850;25.948;2022-07-29T10:01:37;8.48;;;2.92;;
71343;SDS011;59146;43.850;25.948;2022-07-29T10:04:02;5.05;;;2.97;;
71343;SDS011;59146;43.850;25.948;2022-07-29T10:06:28;2.80;;;2.38;;
71343;SDS011;59146;43.850;25.948;2022-07-29T10:08:54;9.05;;;3.08;;
71343;SDS011;59146;43.850;25.948;2022-07-29T10:11:19;6.35;;;3.33;;
71343;SDS011;59146;43.850;25.948;2022-07-29T10:13:54;13.02;;;3.17;;
71343;SDS011;59146;43.850;25.948;2022-07-29T10:16:20;7.13;;;2.80;;
71343;SDS011;59146;43.850;25.948;2022-07-29T10:18:46;5.85;;;2.45;;
71343;SDS011;59146;43.850;25.948;2022-07-29T10:21:12;4.38;;;3.17;;
71343;SDS011;59146;43.850;25.948;2022-07-29T10:23:38;6.43;;;2.80;;
71343;SDS011;59146;43.850;25.948;2022-07-29T10:26:04;3.83;;;2.80;;
71343;SDS011;59146;43.850;25.948;2022-07-29T10:28:31;4.05;;;2.85;;
71343;SDS011;59146;43.850;25.948;2022-07-29T10:31:00;6.97;;;2.90;;
71343;SDS011;59146;43.850;25.948;2022-07-29T10:38:47;4.70;;;2.58;;
71343;SDS011;59146;43.850;25.948;2022-07-29T10:44:03;6.45;;;2.60;;
71343;SDS011;59146;43.850;25.948;2022-07-29T10:46:35;5.57;;;2.60;;
71343;SDS011;59146;43.850;25.948;2022-07-29T10:49:06;4.20;;;2.55;;
71343;SDS011;59146;43.850;25.948;2022-07-29T10:51:53;3.38;;;2.35;;
71343;SDS011;59146;43.850;25.948;2022-07-29T10:54:55;7.30;;;2.90;;
71343;SDS011;59146;43.850;25.948;2022-07-29T11:05:04;5.35;;;3.25;;
71343;SDS011;59146;43.850;25.948;2022-07-29T11:07:37;5.28;;;2.90;;
71343;SDS011;59146;43.850;25.948;2022-07-29T11:21:02;2.88;;;2.58;;
71343;SDS011;59146;43.850;25.948;2022-07-29T11:23:46;4.72;;;2.60;;
71343;SDS011;59146;43.850;25.948;2022-07-29T11:31:32;4.38;;;3.13;;
71343;SDS011;59146;43.850;25.948;2022-07-29T11:34:21;8.25;;;3.53;;
71343;SDS011;59146;43.850;25.948;2022-07-29T11:39:43;4.55;;;2.97;;
71343;SDS011;59146;43.850;25.948;2022-07-29T11:44:57;8.05;;;3.08;;
71343;SDS011;59146;43.850;25.948;2022-07-29T11:47:22;5.95;;;2.80;;
71343;SDS011;59146;43.850;25.948;2022-07-29T11:49:49;7.13;;;5.20;;
71343;SDS011;59146;43.850;25.948;2022-07-29T11:52:16;8.07;;;6.07;;
71343;SDS011;59146;43.850;25.948;2022-07-29T11:54:42;7.63;;;3.38;;
71343;SDS011;59146;43.850;25.948;2022-07-29T11:57:08;7.63;;;3.00;;
71343;SDS011;59146;43.850;25.948;2022-07-29T11:59:41;4.65;;;2.85;;
71343;SDS011;59146;43.850;25.948;2022-07-29T12:02:07;5.00;;;3.13;;
71343;SDS011;59146;43.850;25.948;2022-07-29T12:04:34;4.30;;;2.85;;
71343;SDS011;59146;43.850;25.948;2022-07-29T12:07:13;4.45;;;3.50;;
71343;SDS011;59146;43.850;25.948;2022-07-29T12:09:39;27.90;;;3.65;;
71343;SDS011;59146;43.850;25.948;2022-07-29T12:12:05;5.03;;;2.58;;
71343;SDS011;59146;43.850;25.948;2022-07-29T12:14:31;14.23;;;8.13;;
71343;SDS011;59146;43.850;25.948;2022-07-29T12:16:58;4.90;;;4.43;;
71343;SDS011;59146;43.850;25.948;2022-07-29T12:19:24;4.95;;;2.95;;
71343;SDS011;59146;43.850;25.948;2022-07-29T12:21:51;6.32;;;2.78;;
71343;SDS011;59146;43.850;25.948;2022-07-29T12:24:19;7.05;;;2.67;;
71343;SDS011;59146;43.850;25.948;2022-07-29T12:26:56;3.05;;;2.78;;
71343;SDS011;59146;43.850;25.948;2022-07-29T12:29:22;4.97;;;2.70;;
71343;SDS011;59146;43.850;25.948;2022-07-29T12:31:51;3.75;;;3.03;;
71343;SDS011;59146;43.850;25.948;2022-07-29T12:34:19;5.28;;;3.30;;
71343;SDS011;59146;43.850;25.948;2022-07-29T12:36:47;7.45;;;2.85;;
71343;SDS011;59146;43.850;25.948;2022-07-29T12:39:14;3.83;;;2.78;;
71343;SDS011;59146;43.850;25.948;2022-07-29T12:41:41;3.03;;;2.83;;
71343;SDS011;59146;43.850;25.948;2022-07-29T12:44:06;7.32;;;2.70;;
71343;SDS011;59146;43.850;25.948;2022-07-29T12:46:32;5.80;;;2.78;;
71343;SDS011;59146;43.850;25.948;2022-07-29T12:48:57;9.43;;;4.35;;
71343;SDS011;59146;43.850;25.948;2022-07-29T12:56:40;5.72;;;3.08;;
71343;SDS011;59146;43.850;25.948;2022-07-29T12:59:17;4.38;;;3.42;;
71343;SDS011;59146;43.850;25.948;2022-07-29T13:01:43;6.28;;;2.90;;
71343;SDS011;59146;43.850;25.948;2022-07-29T13:04:09;4.95;;;3.13;;
71343;SDS011;59146;43.850;25.948;2022-07-29T13:09:07;12.95;;;9.85;;
71343;SDS011;59146;43.850;25.948;2022-07-29T13:11:41;7.75;;;2.88;;
71343;SDS011;59146;43.850;25.948;2022-07-29T13:14:10;6.40;;;2.60;;
71343;SDS011;59146;43.850;25.948;2022-07-29T13:17:00;5.20;;;3.13;;
71343;SDS011;59146;43.850;25.948;2022-07-29T13:19:32;5.40;;;2.78;;
71343;SDS011;59146;43.850;25.948;2022-07-29T13:22:00;8.43;;;2.75;;
71343;SDS011;59146;43.850;25.948;2022-07-29T13:24:25;6.53;;;2.90;;
71343;SDS011;59146;43.850;25.948;2022-07-29T13:26:51;2.97;;;2.67;;
71343;SDS011;59146;43.850;25.948;2022-07-29T13:29:17;3.88;;;2.53;;
71343;SDS011;59146;43.850;25.948;2022-07-29T13:31:42;4.82;;;2.88;;
71343;SDS011;59146;43.850;25.948;2022-07-29T13:34:08;3.80;;;2.78;;
71343;SDS011;59146;43.850;25.948;2022-07-29T13:36:33;7.28;;;3.10;;
71343;SDS011;59146;43.850;25.948;2022-07-29T13:38:59;4.78;;;4.18;;
71343;SDS011;59146;43.850;25.948;2022-07-29T13:41:26;12.60;;;4.72;;
71343;SDS011;59146;43.850;25.948;2022-07-29T13:43:51;4.13;;;2.50;;
71343;SDS011;59146;43.850;25.948;2022-07-29T13:46:17;5.00;;;2.75;;
71343;SDS011;59146;43.850;25.948;2022-07-29T13:48:43;4.00;;;3.03;;
71343;SDS011;59146;43.850;25.948;2022-07-29T13:51:08;2.90;;;2.40;;
71343;SDS011;59146;43.850;25.948;2022-07-29T13:53:34;6.78;;;2.58;;
71343;SDS011;59146;43.850;25.948;2022-07-29T13:55:59;3.42;;;2.97;;
71343;SDS011;59146;43.850;25.948;2022-07-29T13:58:25;8.77;;;2.45;;
71343;SDS011;59146;43.850;25.948;2022-07-29T14:00:50;5.93;;;2.88;;
71343;SDS011;59146;43.850;25.948;2022-07-29T14:03:16;6.30;;;2.80;;
71343;SDS011;59146;43.850;25.948;2022-07-29T14:05:41;7.95;;;3.15;;
71343;SDS011;59146;43.850;25.948;2022-07-29T14:08:07;4.38;;;2.85;;
71343;SDS011;59146;43.850;25.948;2022-07-29T14:10:32;7.35;;;2.90;;
71343;SDS011;59146;43.850;25.948;2022-07-29T14:12:58;3.60;;;2.60;;
71343;SDS011;59146;43.850;25.948;2022-07-29T14:15:23;3.65;;;2.58;;
71343;SDS011;59146;43.850;25.948;2022-07-29T14:17:48;5.03;;;3.00;;
71343;SDS011;59146;43.850;25.948;2022-07-29T14:20:14;5.30;;;2.95;;
71343;SDS011;59146;43.850;25.948;2022-07-29T14:22:40;4.63;;;2.70;;
71343;SDS011;59146;43.850;25.948;2022-07-29T14:25:07;11.07;;;3.40;;
71343;SDS011;59146;43.850;25.948;2022-07-29T14:27:33;5.05;;;3.05;;
71343;SDS011;59146;43.850;25.948;2022-07-29T14:29:58;10.18;;;3.40;;
71343;SDS011;59146;43.850;25.948;2022-07-29T14:32:24;5.25;;;2.92;;
71343;SDS011;59146;43.850;25.948;2022-07-29T14:34:49;4.75;;;3.22;;
71343;SDS011;59146;43.850;25.948;2022-07-29T14:37:15;4.38;;;2.88;;
71343;SDS011;59146;43.850;25.948;2022-07-29T14:39:40;6.30;;;3.58;;
71343;SDS011;59146;43.850;25.948;2022-07-29T14:42:06;7.10;;;3.80;;
71343;SDS011;59146;43.850;25.948;2022-07-29T14:44:32;8.25;;;3.25;;
71343;SDS011;59146;43.850;25.948;2022-07-29T14:46:58;4.72;;;3.25;;
71343;SDS011;59146;43.850;25.948;2022-07-29T14:49:25;9.38;;;4.40;;
71343;SDS011;59146;43.850;25.948;2022-07-29T14:51:50;6.93;;;4.13;;
71343;SDS011;59146;43.850;25.948;2022-07-29T14:54:16;6.30;;;3.95;;
71343;SDS011;59146;43.850;25.948;2022-07-29T14:56:42;7.32;;;5.47;;
71343;SDS011;59146;43.850;25.948;2022-07-29T14:59:07;8.35;;;5.10;;
71343;SDS011;59146;43.850;25.948;2022-07-29T15:01:32;10.27;;;4.20;;
71343;SDS011;59146;43.850;25.948;2022-07-29T15:03:58;7.78;;;3.72;;
71343;SDS011;59146;43.850;25.948;2022-07-29T15:06:24;13.05;;;4.65;;
71343;SDS011;59146;43.850;25.948;2022-07-29T15:08:49;7.63;;;3.72;;
71343;SDS011;59146;43.850;25.948;2022-07-29T15:11:15;5.57;;;3.72;;
71343;SDS011;59146;43.850;25.948;2022-07-29T15:13:40;4.13;;;2.97;;
71343;SDS011;59146;43.850;25.948;2022-07-29T15:16:06;4.68;;;3.50;;
71343;SDS011;59146;43.850;25.948;2022-07-29T15:18:31;12.38;;;4.55;;
71343;SDS011;59146;43.850;25.948;2022-07-29T15:20:57;4.18;;;3.55;;
71343;SDS011;59146;43.850;25.948;2022-07-29T15:23:22;4.40;;;3.75;;
71343;SDS011;59146;43.850;25.948;2022-07-29T15:25:47;4.47;;;3.38;;